Time;durP1;ratioP1;P1;durP2;ratioP2;P2;SDS_P1;SDS_P2;PMS_P1;PMS_P2;Temp;Humidity;BMP_temperature;BMP_pressure;BME280_temperature;BME280_humidity;BME280_pressure;Samples;Min_cycle;Max_cycle;Signal;HPM_P1;HPM_P2
2020/12/27 00:00:35;;;;;;;4.6;3.5;;;;;;;-5.11;79.64063;95202.62;;;;
2020/12/27 00:01:35;;;;;;;4.6;3.5;;;;;;;-5.11;79.64063;95202.62;;;;
2020/12/27 00:02:36;;;;;;;4.6;3.5;;;;;;;-5.11;79.64063;95202.62;;;;
2020/12/27 00:03:36;;;;;;;4.6;3.5;;;;;;;-5.11;79.64063;95202.62;;;;
2020/12/27 00:04:36;;;;;;;4.6;3.5;;;;;;;-5.11;79.64063;95202.62;;;;
2020/12/27 00:05:37;;;;;;;4.6;3.5;;;;;;;-5.11;79.64063;95202.62;;;;
2020/12/27 00:06:38;;;;;;;4.6;3.5;;;;;;;-5.11;79.64063;95202.62;;;;
2020/12/27 00:07:38;;;;;;;4.6;3.5;;;;;;;-5.11;79.64063;95202.62;;;;
2020/12/27 00:08:39;;;;;;;4.849999;3.25;;;;;;;-5.13;79.70898;95183.03;;;;
2020/12/27 00:09:39;;;;;;;4.849999;3.25;;;;;;;-5.13;79.70898;95183.03;;;;
2020/12/27 00:10:42;;;;;;;4.849999;3.25;;;;;;;-5.13;79.70898;95183.03;;;;
2020/12/27 00:11:42;;;;;;;4.849999;3.25;;;;;;;-5.13;79.70898;95183.03;;;;
2020/12/27 00:12:42;;;;;;;4.849999;3.25;;;;;;;-5.13;79.70898;95183.03;;;;
2020/12/27 00:13:43;;;;;;;4.849999;3.25;;;;;;;-5.13;79.70898;95183.03;;;;
2020/12/27 00:14:43;;;;;;;4.849999;3.25;;;;;;;-5.13;79.70898;95183.03;;;;
2020/12/27 00:15:44;;;;;;;4.849999;3.25;;;;;;;-5.13;79.70898;95183.03;;;;
2020/12/27 00:16:44;;;;;;;4.849999;3.25;;;;;;;-5.13;79.70898;95183.03;;;;
2020/12/27 00:17:45;;;;;;;4.849999;3.25;;;;;;;-5.13;79.70898;95183.03;;;;
2020/12/27 00:18:45;;;;;;;4.15;3.55;;;;;;;-5.15;79.92188;95154.72;;;;
2020/12/27 00:19:46;;;;;;;4.15;3.55;;;;;;;-5.15;79.92188;95154.72;;;;
2020/12/27 00:20:46;;;;;;;4.15;3.55;;;;;;;-5.15;79.92188;95154.72;;;;
2020/12/27 00:21:47;;;;;;;4.15;3.55;;;;;;;-5.15;79.92188;95154.72;;;;
2020/12/27 00:22:47;;;;;;;4.15;3.55;;;;;;;-5.15;79.92188;95154.72;;;;
2020/12/27 00:23:49;;;;;;;4.15;3.55;;;;;;;-5.15;79.92188;95154.72;;;;
2020/12/27 00:24:49;;;;;;;4.15;3.55;;;;;;;-5.15;79.92188;95154.72;;;;
2020/12/27 00:25:50;;;;;;;4.15;3.55;;;;;;;-5.15;79.92188;95154.72;;;;
2020/12/27 00:26:51;;;;;;;4.15;3.55;;;;;;;-5.15;79.92188;95154.72;;;;
2020/12/27 00:27:51;;;;;;;4.15;3.55;;;;;;;-5.15;79.92188;95154.72;;;;
2020/12/27 00:28:51;;;;;;;4.15;3.55;;;;;;;-5.15;79.92188;95154.72;;;;
2020/12/27 00:29:52;;;;;;;4.25;3.6;;;;;;;-5.18;80.01855;95131.3;;;;
2020/12/27 00:30:52;;;;;;;4.25;3.6;;;;;;;-5.18;80.01855;95131.3;;;;
2020/12/27 00:31:53;;;;;;;4.25;3.6;;;;;;;-5.18;80.01855;95131.3;;;;
2020/12/27 00:32:55;;;;;;;4.25;3.6;;;;;;;-5.18;80.01855;95131.3;;;;
2020/12/27 00:33:55;;;;;;;4.25;3.6;;;;;;;-5.18;80.01855;95131.3;;;;
2020/12/27 00:34:56;;;;;;;4.25;3.6;;;;;;;-5.18;80.01855;95131.3;;;;
2020/12/27 00:35:57;;;;;;;4.25;3.6;;;;;;;-5.18;80.01855;95131.3;;;;
2020/12/27 00:36:57;;;;;;;4.25;3.6;;;;;;;-5.18;80.01855;95131.3;;;;
2020/12/27 00:37:58;;;;;;;4.25;3.6;;;;;;;-5.18;80.01855;95131.3;;;;
2020/12/27 00:38:59;;;;;;;4.25;3.6;;;;;;;-5.18;80.01855;95131.3;;;;
2020/12/27 00:39:59;;;;;;;4.25;3.6;;;;;;;-5.18;80.01855;95131.3;;;;
2020/12/27 00:41:00;;;;;;;4;3.15;;;;;;;-5.26;80.15723;95115.43;;;;
2020/12/27 00:42:00;;;;;;;4;3.15;;;;;;;-5.26;80.15723;95115.43;;;;
2020/12/27 00:43:05;;;;;;;4;3.15;;;;;;;-5.26;80.15723;95115.43;;;;
2020/12/27 00:44:06;;;;;;;4;3.15;;;;;;;-5.26;80.15723;95115.43;;;;
2020/12/27 00:45:06;;;;;;;4;3.15;;;;;;;-5.26;80.15723;95115.43;;;;
2020/12/27 00:46:07;;;;;;;4;3.15;;;;;;;-5.26;80.15723;95115.43;;;;
2020/12/27 00:47:10;;;;;;;4;3.15;;;;;;;-5.26;80.15723;95115.43;;;;
2020/12/27 00:48:10;;;;;;;4;3.15;;;;;;;-5.26;80.15723;95115.43;;;;
2020/12/27 00:49:10;;;;;;;4;3.15;;;;;;;-5.26;80.15723;95115.43;;;;
2020/12/27 00:50:11;;;;;;;4;3.15;;;;;;;-5.26;80.15723;95115.43;;;;
2020/12/27 00:51:11;;;;;;;4.35;3.3;;;;;;;-5.27;80.71973;95107.26;;;;
2020/12/27 00:52:12;;;;;;;4.35;3.3;;;;;;;-5.27;80.71973;95107.26;;;;
2020/12/27 00:53:13;;;;;;;4.35;3.3;;;;;;;-5.27;80.71973;95107.26;;;;
2020/12/27 00:54:14;;;;;;;4.35;3.3;;;;;;;-5.27;80.71973;95107.26;;;;
2020/12/27 00:55:15;;;;;;;4.35;3.3;;;;;;;-5.27;80.71973;95107.26;;;;
2020/12/27 00:56:15;;;;;;;4.35;3.3;;;;;;;-5.27;80.71973;95107.26;;;;
2020/12/27 00:57:16;;;;;;;4.35;3.3;;;;;;;-5.27;80.71973;95107.26;;;;
2020/12/27 00:58:16;;;;;;;4.35;3.3;;;;;;;-5.27;80.71973;95107.26;;;;
2020/12/27 00:59:17;;;;;;;4.35;3.3;;;;;;;-5.27;80.71973;95107.26;;;;
2020/12/27 01:00:17;;;;;;;4.35;3.3;;;;;;;-5.27;80.71973;95107.26;;;;
2020/12/27 01:01:18;;;;;;;4.35;3.3;;;;;;;-5.27;80.71973;95107.26;;;;
2020/12/27 01:02:18;;;;;;;3.55;3.25;;;;;;;-5.2;80.84863;95089.45;;;;
2020/12/27 01:03:19;;;;;;;3.55;3.25;;;;;;;-5.2;80.84863;95089.45;;;;
2020/12/27 01:04:19;;;;;;;3.55;3.25;;;;;;;-5.2;80.84863;95089.45;;;;
2020/12/27 01:05:20;;;;;;;3.55;3.25;;;;;;;-5.2;80.84863;95089.45;;;;
2020/12/27 01:06:20;;;;;;;3.55;3.25;;;;;;;-5.2;80.84863;95089.45;;;;
2020/12/27 01:07:22;;;;;;;3.55;3.25;;;;;;;-5.2;80.84863;95089.45;;;;
2020/12/27 01:08:23;;;;;;;3.55;3.25;;;;;;;-5.2;80.84863;95089.45;;;;
2020/12/27 01:09:23;;;;;;;3.55;3.25;;;;;;;-5.2;80.84863;95089.45;;;;
2020/12/27 01:10:25;;;;;;;3.55;3.25;;;;;;;-5.2;80.84863;95089.45;;;;
2020/12/27 01:11:25;;;;;;;3.55;3.25;;;;;;;-5.2;80.84863;95089.45;;;;
2020/12/27 01:12:26;;;;;;;3.95;3.05;;;;;;;-5.21;80.79395;95079.88;;;;
2020/12/27 01:13:26;;;;;;;3.95;3.05;;;;;;;-5.21;80.79395;95079.88;;;;
2020/12/27 01:14:27;;;;;;;3.95;3.05;;;;;;;-5.21;80.79395;95079.88;;;;
2020/12/27 01:15:27;;;;;;;3.95;3.05;;;;;;;-5.21;80.79395;95079.88;;;;
2020/12/27 01:16:28;;;;;;;3.95;3.05;;;;;;;-5.21;80.79395;95079.88;;;;
2020/12/27 01:17:28;;;;;;;3.95;3.05;;;;;;;-5.21;80.79395;95079.88;;;;
2020/12/27 01:18:29;;;;;;;3.95;3.05;;;;;;;-5.21;80.79395;95079.88;;;;
2020/12/27 01:19:29;;;;;;;3.95;3.05;;;;;;;-5.21;80.79395;95079.88;;;;
2020/12/27 01:20:30;;;;;;;3.95;3.05;;;;;;;-5.21;80.79395;95079.88;;;;
2020/12/27 01:21:31;;;;;;;3.95;3.05;;;;;;;-5.21;80.79395;95079.88;;;;
2020/12/27 01:22:31;;;;;;;3.95;3.05;;;;;;;-5.21;80.79395;95079.88;;;;
2020/12/27 01:23:32;;;;;;;3.750001;2.95;;;;;;;-5.29;80.66602;95062.7;;;;
2020/12/27 01:24:33;;;;;;;3.750001;2.95;;;;;;;-5.29;80.66602;95062.7;;;;
2020/12/27 01:25:33;;;;;;;3.750001;2.95;;;;;;;-5.29;80.66602;95062.7;;;;
2020/12/27 01:26:34;;;;;;;3.750001;2.95;;;;;;;-5.29;80.66602;95062.7;;;;
2020/12/27 01:27:35;;;;;;;3.750001;2.95;;;;;;;-5.29;80.66602;95062.7;;;;
2020/12/27 01:28:39;;;;;;;3.750001;2.95;;;;;;;-5.29;80.66602;95062.7;;;;
2020/12/27 01:29:39;;;;;;;3.750001;2.95;;;;;;;-5.29;80.66602;95062.7;;;;
2020/12/27 01:30:40;;;;;;;3.750001;2.95;;;;;;;-5.29;80.66602;95062.7;;;;
2020/12/27 01:31:40;;;;;;;3.750001;2.95;;;;;;;-5.29;80.66602;95062.7;;;;
2020/12/27 01:32:41;;;;;;;3.750001;2.95;;;;;;;-5.29;80.66602;95062.7;;;;
2020/12/27 01:33:42;;;;;;;3.8;3.05;;;;;;;-5.31;80.65234;95068.08;;;;
2020/12/27 01:34:42;;;;;;;3.8;3.05;;;;;;;-5.31;80.65234;95068.08;;;;
2020/12/27 01:35:43;;;;;;;3.8;3.05;;;;;;;-5.31;80.65234;95068.08;;;;
2020/12/27 01:36:44;;;;;;;3.8;3.05;;;;;;;-5.31;80.65234;95068.08;;;;
2020/12/27 01:37:44;;;;;;;3.8;3.05;;;;;;;-5.31;80.65234;95068.08;;;;
2020/12/27 01:38:44;;;;;;;3.8;3.05;;;;;;;-5.31;80.65234;95068.08;;;;
2020/12/27 01:39:45;;;;;;;3.8;3.05;;;;;;;-5.31;80.65234;95068.08;;;;
2020/12/27 01:40:45;;;;;;;3.8;3.05;;;;;;;-5.31;80.65234;95068.08;;;;
2020/12/27 01:41:46;;;;;;;3.8;3.05;;;;;;;-5.31;80.65234;95068.08;;;;
2020/12/27 01:42:46;;;;;;;3.8;3.05;;;;;;;-5.31;80.65234;95068.08;;;;
2020/12/27 01:43:53;;;;;;;3.8;3.05;;;;;;;-5.31;80.65234;95068.08;;;;
2020/12/27 01:45:04;;;;;;;4.3;3.25;;;;;;;-5.38;80.54492;95034.22;;;;
2020/12/27 01:46:05;;;;;;;4.3;3.25;;;;;;;-5.38;80.54492;95034.22;;;;
2020/12/27 01:47:06;;;;;;;4.3;3.25;;;;;;;-5.38;80.54492;95034.22;;;;
2020/12/27 01:48:15;;;;;;;4.3;3.25;;;;;;;-5.38;80.54492;95034.22;;;;
2020/12/27 01:49:15;;;;;;;4.3;3.25;;;;;;;-5.38;80.54492;95034.22;;;;
2020/12/27 01:50:16;;;;;;;4.3;3.25;;;;;;;-5.38;80.54492;95034.22;;;;
2020/12/27 01:51:18;;;;;;;4.3;3.25;;;;;;;-5.38;80.54492;95034.22;;;;
2020/12/27 01:52:18;;;;;;;4.3;3.25;;;;;;;-5.38;80.54492;95034.22;;;;
2020/12/27 01:53:18;;;;;;;4.3;3.25;;;;;;;-5.38;80.54492;95034.22;;;;
2020/12/27 01:54:19;;;;;;;4.3;3.25;;;;;;;-5.38;80.54492;95034.22;;;;
2020/12/27 01:55:21;;;;;;;3.95;2.85;;;;;;;-5.36;80.85938;95023.86;;;;
2020/12/27 01:56:21;;;;;;;3.95;2.85;;;;;;;-5.36;80.85938;95023.86;;;;
2020/12/27 01:57:26;;;;;;;3.95;2.85;;;;;;;-5.36;80.85938;95023.86;;;;
2020/12/27 01:58:55;;;;;;;3.95;2.85;;;;;;;-5.36;80.85938;95023.86;;;;
2020/12/27 02:00:01;;;;;;;3.95;2.85;;;;;;;-5.36;80.85938;95023.86;;;;
2020/12/27 02:01:04;;;;;;;3.95;2.85;;;;;;;-5.36;80.85938;95023.86;;;;
2020/12/27 02:02:05;;;;;;;3.95;2.85;;;;;;;-5.36;80.85938;95023.86;;;;
2020/12/27 02:03:06;;;;;;;3.95;2.85;;;;;;;-5.36;80.85938;95023.86;;;;
2020/12/27 02:04:07;;;;;;;3.95;2.85;;;;;;;-5.36;80.85938;95023.86;;;;
2020/12/27 02:05:08;;;;;;;3.95;2.85;;;;;;;-5.36;80.85938;95023.86;;;;
2020/12/27 02:06:08;;;;;;;4.1;3.15;;;;;;;-5.37;80.8457;94974.05;;;;
2020/12/27 02:07:09;;;;;;;4.1;3.15;;;;;;;-5.37;80.8457;94974.05;;;;
2020/12/27 02:08:10;;;;;;;4.1;3.15;;;;;;;-5.37;80.8457;94974.05;;;;
2020/12/27 02:09:12;;;;;;;4.1;3.15;;;;;;;-5.37;80.8457;94974.05;;;;
2020/12/27 02:10:13;;;;;;;4.1;3.15;;;;;;;-5.37;80.8457;94974.05;;;;
2020/12/27 02:11:15;;;;;;;4.1;3.15;;;;;;;-5.37;80.8457;94974.05;;;;
2020/12/27 02:12:16;;;;;;;4.1;3.15;;;;;;;-5.37;80.8457;94974.05;;;;
2020/12/27 02:13:16;;;;;;;4.1;3.15;;;;;;;-5.37;80.8457;94974.05;;;;
2020/12/27 02:14:17;;;;;;;4.1;3.15;;;;;;;-5.37;80.8457;94974.05;;;;
2020/12/27 02:15:17;;;;;;;4.1;3.15;;;;;;;-5.37;80.8457;94974.05;;;;
2020/12/27 02:16:18;;;;;;;4.7;3.1;;;;;;;-5.4;80.96387;94951.9;;;;
2020/12/27 02:17:19;;;;;;;4.7;3.1;;;;;;;-5.4;80.96387;94951.9;;;;
2020/12/27 02:18:21;;;;;;;4.7;3.1;;;;;;;-5.4;80.96387;94951.9;;;;
2020/12/27 02:19:21;;;;;;;4.7;3.1;;;;;;;-5.4;80.96387;94951.9;;;;
2020/12/27 02:20:22;;;;;;;4.7;3.1;;;;;;;-5.4;80.96387;94951.9;;;;
2020/12/27 02:21:22;;;;;;;4.7;3.1;;;;;;;-5.4;80.96387;94951.9;;;;
2020/12/27 02:22:23;;;;;;;4.7;3.1;;;;;;;-5.4;80.96387;94951.9;;;;
2020/12/27 02:23:24;;;;;;;4.7;3.1;;;;;;;-5.4;80.96387;94951.9;;;;
2020/12/27 02:24:24;;;;;;;4.7;3.1;;;;;;;-5.4;80.96387;94951.9;;;;
2020/12/27 02:25:25;;;;;;;4.7;3.1;;;;;;;-5.4;80.96387;94951.9;;;;
2020/12/27 02:26:25;;;;;;;4.7;3.1;;;;;;;-5.4;80.96387;94951.9;;;;
2020/12/27 02:27:27;;;;;;;3.35;3;;;;;;;-5.33;81.3584;94904.81;;;;
2020/12/27 02:28:30;;;;;;;3.35;3;;;;;;;-5.33;81.3584;94904.81;;;;
2020/12/27 02:29:31;;;;;;;3.35;3;;;;;;;-5.33;81.3584;94904.81;;;;
2020/12/27 02:30:34;;;;;;;3.35;3;;;;;;;-5.33;81.3584;94904.81;;;;
2020/12/27 02:31:35;;;;;;;3.35;3;;;;;;;-5.33;81.3584;94904.81;;;;
2020/12/27 02:32:35;;;;;;;3.35;3;;;;;;;-5.33;81.3584;94904.81;;;;
2020/12/27 02:33:36;;;;;;;3.35;3;;;;;;;-5.33;81.3584;94904.81;;;;
2020/12/27 02:34:37;;;;;;;3.35;3;;;;;;;-5.33;81.3584;94904.81;;;;
2020/12/27 02:35:37;;;;;;;3.35;3;;;;;;;-5.33;81.3584;94904.81;;;;
2020/12/27 02:36:38;;;;;;;3.35;3;;;;;;;-5.33;81.3584;94904.81;;;;
2020/12/27 02:37:38;;;;;;;3.35;3;;;;;;;-5.33;81.3584;94904.81;;;;
2020/12/27 02:38:39;;;;;;;3.5;3.15;;;;;;;-5.22;81.67871;94881.34;;;;
2020/12/27 02:39:39;;;;;;;3.5;3.15;;;;;;;-5.22;81.67871;94881.34;;;;
2020/12/27 02:40:40;;;;;;;3.5;3.15;;;;;;;-5.22;81.67871;94881.34;;;;
2020/12/27 02:41:41;;;;;;;3.5;3.15;;;;;;;-5.22;81.67871;94881.34;;;;
2020/12/27 02:42:42;;;;;;;3.5;3.15;;;;;;;-5.22;81.67871;94881.34;;;;
2020/12/27 02:43:42;;;;;;;3.5;3.15;;;;;;;-5.22;81.67871;94881.34;;;;
2020/12/27 02:45:05;;;;;;;3.5;3.15;;;;;;;-5.22;81.67871;94881.34;;;;
2020/12/27 02:46:07;;;;;;;3.5;3.15;;;;;;;-5.22;81.67871;94881.34;;;;
2020/12/27 02:47:19;;;;;;;3.5;3.15;;;;;;;-5.22;81.67871;94881.34;;;;
2020/12/27 02:48:19;;;;;;;3.5;3.15;;;;;;;-5.22;81.67871;94881.34;;;;
2020/12/27 02:49:20;;;;;;;4.85;3.3;;;;;;;-5.14;81.45703;94857.7;;;;
2020/12/27 02:50:20;;;;;;;4.85;3.3;;;;;;;-5.14;81.45703;94857.7;;;;
2020/12/27 02:51:21;;;;;;;4.85;3.3;;;;;;;-5.14;81.45703;94857.7;;;;
2020/12/27 02:52:23;;;;;;;4.85;3.3;;;;;;;-5.14;81.45703;94857.7;;;;
2020/12/27 02:53:23;;;;;;;4.85;3.3;;;;;;;-5.14;81.45703;94857.7;;;;
2020/12/27 02:54:24;;;;;;;4.85;3.3;;;;;;;-5.14;81.45703;94857.7;;;;
2020/12/27 02:55:24;;;;;;;4.85;3.3;;;;;;;-5.14;81.45703;94857.7;;;;
2020/12/27 02:56:24;;;;;;;4.85;3.3;;;;;;;-5.14;81.45703;94857.7;;;;
2020/12/27 02:57:26;;;;;;;4.85;3.3;;;;;;;-5.14;81.45703;94857.7;;;;
2020/12/27 02:58:27;;;;;;;4.85;3.3;;;;;;;-5.14;81.45703;94857.7;;;;
2020/12/27 02:59:27;;;;;;;3.35;2.900001;;;;;;;-5.13;81.23242;94833.06;;;;
2020/12/27 03:00:30;;;;;;;3.35;2.900001;;;;;;;-5.13;81.23242;94833.06;;;;
2020/12/27 03:01:30;;;;;;;3.35;2.900001;;;;;;;-5.13;81.23242;94833.06;;;;
2020/12/27 03:02:30;;;;;;;3.35;2.900001;;;;;;;-5.13;81.23242;94833.06;;;;
2020/12/27 03:03:31;;;;;;;3.35;2.900001;;;;;;;-5.13;81.23242;94833.06;;;;
2020/12/27 03:04:31;;;;;;;3.35;2.900001;;;;;;;-5.13;81.23242;94833.06;;;;
2020/12/27 03:05:32;;;;;;;3.35;2.900001;;;;;;;-5.13;81.23242;94833.06;;;;
2020/12/27 03:06:32;;;;;;;3.35;2.900001;;;;;;;-5.13;81.23242;94833.06;;;;
2020/12/27 03:07:33;;;;;;;3.35;2.900001;;;;;;;-5.13;81.23242;94833.06;;;;
2020/12/27 03:08:33;;;;;;;3.35;2.900001;;;;;;;-5.13;81.23242;94833.06;;;;
2020/12/27 03:09:34;;;;;;;3.35;2.900001;;;;;;;-5.13;81.23242;94833.06;;;;
2020/12/27 03:10:34;;;;;;;3.6;3.05;;;;;;;-5.16;81.16309;94813.71;;;;
2020/12/27 03:11:34;;;;;;;3.6;3.05;;;;;;;-5.16;81.16309;94813.71;;;;
2020/12/27 03:12:35;;;;;;;3.6;3.05;;;;;;;-5.16;81.16309;94813.71;;;;
2020/12/27 03:13:35;;;;;;;3.6;3.05;;;;;;;-5.16;81.16309;94813.71;;;;
2020/12/27 03:14:36;;;;;;;3.6;3.05;;;;;;;-5.16;81.16309;94813.71;;;;
2020/12/27 03:15:36;;;;;;;3.6;3.05;;;;;;;-5.16;81.16309;94813.71;;;;
2020/12/27 03:16:37;;;;;;;3.6;3.05;;;;;;;-5.16;81.16309;94813.71;;;;
2020/12/27 03:17:37;;;;;;;3.6;3.05;;;;;;;-5.16;81.16309;94813.71;;;;
2020/12/27 03:18:38;;;;;;;3.6;3.05;;;;;;;-5.16;81.16309;94813.71;;;;
2020/12/27 03:19:38;;;;;;;3.6;3.05;;;;;;;-5.16;81.16309;94813.71;;;;
2020/12/27 03:20:39;;;;;;;4.1;3.35;;;;;;;-5.21;81.11328;94789.15;;;;
2020/12/27 03:21:39;;;;;;;4.1;3.35;;;;;;;-5.21;81.11328;94789.15;;;;
2020/12/27 03:22:40;;;;;;;4.1;3.35;;;;;;;-5.21;81.11328;94789.15;;;;
2020/12/27 03:23:40;;;;;;;4.1;3.35;;;;;;;-5.21;81.11328;94789.15;;;;
2020/12/27 03:24:41;;;;;;;4.1;3.35;;;;;;;-5.21;81.11328;94789.15;;;;
2020/12/27 03:25:41;;;;;;;4.1;3.35;;;;;;;-5.21;81.11328;94789.15;;;;
2020/12/27 03:26:42;;;;;;;4.1;3.35;;;;;;;-5.21;81.11328;94789.15;;;;
2020/12/27 03:27:42;;;;;;;4.1;3.35;;;;;;;-5.21;81.11328;94789.15;;;;
2020/12/27 03:28:43;;;;;;;4.1;3.35;;;;;;;-5.21;81.11328;94789.15;;;;
2020/12/27 03:29:43;;;;;;;4.1;3.35;;;;;;;-5.21;81.11328;94789.15;;;;
2020/12/27 03:30:44;;;;;;;4.1;3.35;;;;;;;-5.21;81.11328;94789.15;;;;
2020/12/27 03:31:44;;;;;;;3.5;2.85;;;;;;;-5.31;80.89941;94762.13;;;;
2020/12/27 03:32:45;;;;;;;3.5;2.85;;;;;;;-5.31;80.89941;94762.13;;;;
2020/12/27 03:33:45;;;;;;;3.5;2.85;;;;;;;-5.31;80.89941;94762.13;;;;
2020/12/27 03:34:47;;;;;;;3.5;2.85;;;;;;;-5.31;80.89941;94762.13;;;;
2020/12/27 03:35:47;;;;;;;3.5;2.85;;;;;;;-5.31;80.89941;94762.13;;;;
2020/12/27 03:36:48;;;;;;;3.5;2.85;;;;;;;-5.31;80.89941;94762.13;;;;
2020/12/27 03:37:49;;;;;;;3.5;2.85;;;;;;;-5.31;80.89941;94762.13;;;;
2020/12/27 03:38:51;;;;;;;3.5;2.85;;;;;;;-5.31;80.89941;94762.13;;;;
2020/12/27 03:39:52;;;;;;;3.5;2.85;;;;;;;-5.31;80.89941;94762.13;;;;
2020/12/27 03:40:52;;;;;;;3.5;2.85;;;;;;;-5.31;80.89941;94762.13;;;;
2020/12/27 03:41:53;;;;;;;3.749999;2.85;;;;;;;-5.41;81.25977;94742.08;;;;
2020/12/27 03:42:53;;;;;;;3.749999;2.85;;;;;;;-5.41;81.25977;94742.08;;;;
2020/12/27 03:43:54;;;;;;;3.749999;2.85;;;;;;;-5.41;81.25977;94742.08;;;;
2020/12/27 03:44:54;;;;;;;3.749999;2.85;;;;;;;-5.41;81.25977;94742.08;;;;
2020/12/27 03:45:55;;;;;;;3.749999;2.85;;;;;;;-5.41;81.25977;94742.08;;;;
2020/12/27 03:46:55;;;;;;;3.749999;2.85;;;;;;;-5.41;81.25977;94742.08;;;;
2020/12/27 03:47:56;;;;;;;3.749999;2.85;;;;;;;-5.41;81.25977;94742.08;;;;
2020/12/27 03:48:56;;;;;;;3.749999;2.85;;;;;;;-5.41;81.25977;94742.08;;;;
2020/12/27 03:49:57;;;;;;;3.749999;2.85;;;;;;;-5.41;81.25977;94742.08;;;;
2020/12/27 03:50:57;;;;;;;3.749999;2.85;;;;;;;-5.41;81.25977;94742.08;;;;
2020/12/27 03:51:58;;;;;;;3.749999;2.85;;;;;;;-5.41;81.25977;94742.08;;;;
2020/12/27 03:52:58;;;;;;;3.65;3;;;;;;;-5.46;81.48535;94725.1;;;;
2020/12/27 03:53:59;;;;;;;3.65;3;;;;;;;-5.46;81.48535;94725.1;;;;
2020/12/27 03:54:59;;;;;;;3.65;3;;;;;;;-5.46;81.48535;94725.1;;;;
2020/12/27 03:56:00;;;;;;;3.65;3;;;;;;;-5.46;81.48535;94725.1;;;;
2020/12/27 03:57:01;;;;;;;3.65;3;;;;;;;-5.46;81.48535;94725.1;;;;
2020/12/27 03:58:01;;;;;;;3.65;3;;;;;;;-5.46;81.48535;94725.1;;;;
2020/12/27 03:59:02;;;;;;;3.65;3;;;;;;;-5.46;81.48535;94725.1;;;;
2020/12/27 04:00:03;;;;;;;3.65;3;;;;;;;-5.46;81.48535;94725.1;;;;
2020/12/27 04:01:04;;;;;;;3.65;3;;;;;;;-5.46;81.48535;94725.1;;;;
2020/12/27 04:02:05;;;;;;;3.65;3;;;;;;;-5.46;81.48535;94725.1;;;;
2020/12/27 04:03:06;;;;;;;4.45;3.1;;;;;;;-5.53;81.5957;94696.45;;;;
2020/12/27 04:04:06;;;;;;;4.45;3.1;;;;;;;-5.53;81.5957;94696.45;;;;
2020/12/27 04:05:07;;;;;;;4.45;3.1;;;;;;;-5.53;81.5957;94696.45;;;;
2020/12/27 04:06:07;;;;;;;4.45;3.1;;;;;;;-5.53;81.5957;94696.45;;;;
2020/12/27 04:07:08;;;;;;;4.45;3.1;;;;;;;-5.53;81.5957;94696.45;;;;
2020/12/27 04:08:08;;;;;;;4.45;3.1;;;;;;;-5.53;81.5957;94696.45;;;;
2020/12/27 04:09:09;;;;;;;4.45;3.1;;;;;;;-5.53;81.5957;94696.45;;;;
2020/12/27 04:10:09;;;;;;;4.45;3.1;;;;;;;-5.53;81.5957;94696.45;;;;
2020/12/27 04:11:10;;;;;;;4.45;3.1;;;;;;;-5.53;81.5957;94696.45;;;;
2020/12/27 04:12:13;;;;;;;4.45;3.1;;;;;;;-5.53;81.5957;94696.45;;;;
2020/12/27 04:13:13;;;;;;;4.45;3.1;;;;;;;-5.53;81.5957;94696.45;;;;
2020/12/27 04:14:14;;;;;;;3.8;3.3;;;;;;;-5.6;81.61426;94670.39;;;;
2020/12/27 04:15:15;;;;;;;3.8;3.3;;;;;;;-5.6;81.61426;94670.39;;;;
2020/12/27 04:16:15;;;;;;;3.8;3.3;;;;;;;-5.6;81.61426;94670.39;;;;
2020/12/27 04:17:15;;;;;;;3.8;3.3;;;;;;;-5.6;81.61426;94670.39;;;;
2020/12/27 04:18:16;;;;;;;3.8;3.3;;;;;;;-5.6;81.61426;94670.39;;;;
2020/12/27 04:19:16;;;;;;;3.8;3.3;;;;;;;-5.6;81.61426;94670.39;;;;
2020/12/27 04:20:17;;;;;;;3.8;3.3;;;;;;;-5.6;81.61426;94670.39;;;;
2020/12/27 04:21:17;;;;;;;3.8;3.3;;;;;;;-5.6;81.61426;94670.39;;;;
2020/12/27 04:22:18;;;;;;;3.8;3.3;;;;;;;-5.6;81.61426;94670.39;;;;
2020/12/27 04:23:18;;;;;;;3.8;3.3;;;;;;;-5.6;81.61426;94670.39;;;;
2020/12/27 04:24:19;;;;;;;3.8;3.3;;;;;;;-5.6;81.61426;94670.39;;;;
2020/12/27 04:25:19;;;;;;;3.55;3.15;;;;;;;-5.7;81.49316;94643.34;;;;
2020/12/27 04:26:20;;;;;;;3.55;3.15;;;;;;;-5.7;81.49316;94643.34;;;;
2020/12/27 04:27:21;;;;;;;3.55;3.15;;;;;;;-5.7;81.49316;94643.34;;;;
2020/12/27 04:28:22;;;;;;;3.55;3.15;;;;;;;-5.7;81.49316;94643.34;;;;
2020/12/27 04:29:22;;;;;;;3.55;3.15;;;;;;;-5.7;81.49316;94643.34;;;;
2020/12/27 04:30:22;;;;;;;3.55;3.15;;;;;;;-5.7;81.49316;94643.34;;;;
2020/12/27 04:31:23;;;;;;;3.55;3.15;;;;;;;-5.7;81.49316;94643.34;;;;
2020/12/27 04:32:24;;;;;;;3.55;3.15;;;;;;;-5.7;81.49316;94643.34;;;;
2020/12/27 04:33:24;;;;;;;3.55;3.15;;;;;;;-5.7;81.49316;94643.34;;;;
2020/12/27 04:34:25;;;;;;;3.55;3.15;;;;;;;-5.7;81.49316;94643.34;;;;
2020/12/27 04:35:25;;;;;;;4.95;2.85;;;;;;;-5.81;81.5127;94621.77;;;;
2020/12/27 04:36:25;;;;;;;4.95;2.85;;;;;;;-5.81;81.5127;94621.77;;;;
2020/12/27 04:37:26;;;;;;;4.95;2.85;;;;;;;-5.81;81.5127;94621.77;;;;
2020/12/27 04:38:27;;;;;;;4.95;2.85;;;;;;;-5.81;81.5127;94621.77;;;;
2020/12/27 04:39:28;;;;;;;4.95;2.85;;;;;;;-5.81;81.5127;94621.77;;;;
2020/12/27 04:40:28;;;;;;;4.95;2.85;;;;;;;-5.81;81.5127;94621.77;;;;
2020/12/27 04:41:29;;;;;;;4.95;2.85;;;;;;;-5.81;81.5127;94621.77;;;;
2020/12/27 04:42:29;;;;;;;4.95;2.85;;;;;;;-5.81;81.5127;94621.77;;;;
2020/12/27 04:43:30;;;;;;;4.95;2.85;;;;;;;-5.81;81.5127;94621.77;;;;
2020/12/27 04:44:32;;;;;;;4.95;2.85;;;;;;;-5.81;81.5127;94621.77;;;;
2020/12/27 04:45:33;;;;;;;4.95;2.85;;;;;;;-5.81;81.5127;94621.77;;;;
2020/12/27 04:46:35;;;;;;;3.4;3;;;;;;;-5.83;81.50879;94598.27;;;;
2020/12/27 04:47:39;;;;;;;3.4;3;;;;;;;-5.83;81.50879;94598.27;;;;
2020/12/27 04:48:39;;;;;;;3.4;3;;;;;;;-5.83;81.50879;94598.27;;;;
2020/12/27 04:49:42;;;;;;;3.4;3;;;;;;;-5.83;81.50879;94598.27;;;;
2020/12/27 04:50:42;;;;;;;3.4;3;;;;;;;-5.83;81.50879;94598.27;;;;
2020/12/27 04:51:44;;;;;;;3.4;3;;;;;;;-5.83;81.50879;94598.27;;;;
2020/12/27 04:52:47;;;;;;;3.4;3;;;;;;;-5.83;81.50879;94598.27;;;;
2020/12/27 04:53:48;;;;;;;3.4;3;;;;;;;-5.83;81.50879;94598.27;;;;
2020/12/27 04:54:48;;;;;;;3.4;3;;;;;;;-5.83;81.50879;94598.27;;;;
2020/12/27 04:55:50;;;;;;;3.4;3;;;;;;;-5.83;81.50879;94598.27;;;;
2020/12/27 04:56:53;;;;;;;3.15;2.8;;;;;;;-5.86;81.63477;94570.17;;;;
2020/12/27 04:57:54;;;;;;;3.15;2.8;;;;;;;-5.86;81.63477;94570.17;;;;
2020/12/27 04:58:56;;;;;;;3.15;2.8;;;;;;;-5.86;81.63477;94570.17;;;;
2020/12/27 04:59:57;;;;;;;3.15;2.8;;;;;;;-5.86;81.63477;94570.17;;;;
2020/12/27 05:01:02;;;;;;;3.15;2.8;;;;;;;-5.86;81.63477;94570.17;;;;
2020/12/27 05:02:03;;;;;;;3.15;2.8;;;;;;;-5.86;81.63477;94570.17;;;;
2020/12/27 05:03:03;;;;;;;3.15;2.8;;;;;;;-5.86;81.63477;94570.17;;;;
2020/12/27 05:04:04;;;;;;;3.15;2.8;;;;;;;-5.86;81.63477;94570.17;;;;
2020/12/27 05:05:12;;;;;;;3.15;2.8;;;;;;;-5.86;81.63477;94570.17;;;;
2020/12/27 05:06:13;;;;;;;3.15;2.8;;;;;;;-5.86;81.63477;94570.17;;;;
2020/12/27 05:07:14;;;;;;;3.3;2.7;;;;;;;-5.85;81.90332;94562.16;;;;
2020/12/27 05:08:19;;;;;;;3.3;2.7;;;;;;;-5.85;81.90332;94562.16;;;;
2020/12/27 05:09:20;;;;;;;3.3;2.7;;;;;;;-5.85;81.90332;94562.16;;;;
2020/12/27 05:10:25;;;;;;;3.3;2.7;;;;;;;-5.85;81.90332;94562.16;;;;
2020/12/27 05:11:25;;;;;;;3.3;2.7;;;;;;;-5.85;81.90332;94562.16;;;;
2020/12/27 05:12:27;;;;;;;3.3;2.7;;;;;;;-5.85;81.90332;94562.16;;;;
2020/12/27 05:13:29;;;;;;;3.3;2.7;;;;;;;-5.85;81.90332;94562.16;;;;
2020/12/27 05:14:30;;;;;;;3.3;2.7;;;;;;;-5.85;81.90332;94562.16;;;;
2020/12/27 05:15:31;;;;;;;3.3;2.7;;;;;;;-5.85;81.90332;94562.16;;;;
2020/12/27 05:16:33;;;;;;;3.3;2.7;;;;;;;-5.85;81.90332;94562.16;;;;
2020/12/27 05:17:36;;;;;;;3.3;2.7;;;;;;;-5.85;81.90332;94562.16;;;;
2020/12/27 05:18:36;;;;;;;3.1;2.65;;;;;;;-5.81;82.02637;94550.81;;;;
2020/12/27 05:19:37;;;;;;;3.1;2.65;;;;;;;-5.81;82.02637;94550.81;;;;
2020/12/27 05:20:37;;;;;;;3.1;2.65;;;;;;;-5.81;82.02637;94550.81;;;;
2020/12/27 05:21:39;;;;;;;3.1;2.65;;;;;;;-5.81;82.02637;94550.81;;;;
2020/12/27 05:22:39;;;;;;;3.1;2.65;;;;;;;-5.81;82.02637;94550.81;;;;
2020/12/27 05:23:41;;;;;;;3.1;2.65;;;;;;;-5.81;82.02637;94550.81;;;;
2020/12/27 05:24:46;;;;;;;3.1;2.65;;;;;;;-5.81;82.02637;94550.81;;;;
2020/12/27 05:25:50;;;;;;;3.1;2.65;;;;;;;-5.81;82.02637;94550.81;;;;
2020/12/27 05:26:51;;;;;;;3.1;2.65;;;;;;;-5.81;82.02637;94550.81;;;;
2020/12/27 05:27:54;;;;;;;3.1;2.65;;;;;;;-5.81;82.02637;94550.81;;;;
2020/12/27 05:28:59;;;;;;;3.25;2.65;;;;;;;-5.65;82.06738;94535.92;;;;
2020/12/27 05:30:00;;;;;;;3.25;2.65;;;;;;;-5.65;82.06738;94535.92;;;;
2020/12/27 05:31:01;;;;;;;3.25;2.65;;;;;;;-5.65;82.06738;94535.92;;;;
2020/12/27 05:32:10;;;;;;;3.25;2.65;;;;;;;-5.65;82.06738;94535.92;;;;
2020/12/27 05:33:11;;;;;;;3.25;2.65;;;;;;;-5.65;82.06738;94535.92;;;;
2020/12/27 05:34:13;;;;;;;3.25;2.65;;;;;;;-5.65;82.06738;94535.92;;;;
2020/12/27 05:35:19;;;;;;;3.25;2.65;;;;;;;-5.65;82.06738;94535.92;;;;
2020/12/27 05:36:20;;;;;;;3.25;2.65;;;;;;;-5.65;82.06738;94535.92;;;;
2020/12/27 05:37:21;;;;;;;3.25;2.65;;;;;;;-5.65;82.06738;94535.92;;;;
2020/12/27 05:38:22;;;;;;;3.25;2.65;;;;;;;-5.65;82.06738;94535.92;;;;
2020/12/27 05:39:24;;;;;;;3.1;2.55;;;;;;;-5.59;81.75;94552.87;;;;
2020/12/27 05:40:28;;;;;;;3.1;2.55;;;;;;;-5.59;81.75;94552.87;;;;
2020/12/27 05:41:34;;;;;;;3.1;2.55;;;;;;;-5.59;81.75;94552.87;;;;
2020/12/27 05:42:35;;;;;;;3.1;2.55;;;;;;;-5.59;81.75;94552.87;;;;
2020/12/27 05:43:35;;;;;;;3.1;2.55;;;;;;;-5.59;81.75;94552.87;;;;
2020/12/27 05:44:37;;;;;;;3.1;2.55;;;;;;;-5.59;81.75;94552.87;;;;
2020/12/27 05:45:37;;;;;;;3.1;2.55;;;;;;;-5.59;81.75;94552.87;;;;
2020/12/27 05:46:38;;;;;;;3.1;2.55;;;;;;;-5.59;81.75;94552.87;;;;
2020/12/27 05:47:43;;;;;;;3.1;2.55;;;;;;;-5.59;81.75;94552.87;;;;
2020/12/27 05:48:45;;;;;;;3.1;2.55;;;;;;;-5.59;81.75;94552.87;;;;
2020/12/27 05:49:45;;;;;;;3.1;2.55;;;;;;;-5.59;81.75;94552.87;;;;
2020/12/27 05:50:46;;;;;;;3.2;2.7;;;;;;;-5.62;81.59863;94538.33;;;;
2020/12/27 05:51:49;;;;;;;3.2;2.7;;;;;;;-5.62;81.59863;94538.33;;;;